地図

経路データ

SID SEASON NUMBER BASIN SUBBASIN NAME ISO_TIME NATURE LAT LON WMO_WIND WMO_PRES WMO_AGENCY TRACK_TYPE DIST2LAND LANDFALL IFLAG USA_AGENCY USA_ATCF_ID USA_LAT USA_LON USA_RECORD USA_STATUS USA_WIND USA_PRES USA_SSHS USA_R34_NE USA_R34_SE USA_R34_SW USA_R34_NW USA_R50_NE USA_R50_SE USA_R50_SW USA_R50_NW USA_R64_NE USA_R64_SE USA_R64_SW USA_R64_NW USA_POCI USA_ROCI USA_RMW USA_EYE TOKYO_LAT TOKYO_LON TOKYO_GRADE TOKYO_WIND TOKYO_PRES TOKYO_R50_DIR TOKYO_R50_LONG TOKYO_R50_SHORT TOKYO_R30_DIR TOKYO_R30_LONG TOKYO_R30_SHORT TOKYO_LAND CMA_LAT CMA_LON CMA_CAT CMA_WIND CMA_PRES HKO_LAT HKO_LON HKO_CAT HKO_WIND HKO_PRES NEWDELHI_LAT NEWDELHI_LON NEWDELHI_GRADE NEWDELHI_WIND NEWDELHI_PRES NEWDELHI_CI NEWDELHI_DP NEWDELHI_POCI REUNION_LAT REUNION_LON REUNION_TYPE REUNION_WIND REUNION_PRES REUNION_TNUM REUNION_CI REUNION_RMW REUNION_R34_NE REUNION_R34_SE REUNION_R34_SW REUNION_R34_NW REUNION_R50_NE REUNION_R50_SE REUNION_R50_SW REUNION_R50_NW REUNION_R64_NE REUNION_R64_SE REUNION_R64_SW REUNION_R64_NW BOM_LAT BOM_LON BOM_TYPE BOM_WIND BOM_PRES BOM_TNUM BOM_CI BOM_RMW BOM_R34_NE BOM_R34_SE BOM_R34_SW BOM_R34_NW BOM_R50_NE BOM_R50_SE BOM_R50_SW BOM_R50_NW BOM_R64_NE BOM_R64_SE BOM_R64_SW BOM_R64_NW BOM_ROCI BOM_POCI BOM_EYE BOM_POS_METHOD BOM_PRES_METHOD NADI_LAT NADI_LON NADI_CAT NADI_WIND NADI_PRES WELLINGTON_LAT WELLINGTON_LON WELLINGTON_WIND WELLINGTON_PRES DS824_LAT DS824_LON DS824_STAGE DS824_WIND DS824_PRES TD9636_LAT TD9636_LON TD9636_STAGE TD9636_WIND TD9636_PRES TD9635_LAT TD9635_LON TD9635_WIND TD9635_PRES TD9635_ROCI NEUMANN_LAT NEUMANN_LON NEUMANN_CLASS NEUMANN_WIND NEUMANN_PRES MLC_LAT MLC_LON MLC_CLASS MLC_WIND MLC_PRES USA_GUST BOM_GUST BOM_GUST_PER REUNION_GUST REUNION_GUST_PER USA_SEAHGT USA_SEARAD_NE USA_SEARAD_SE USA_SEARAD_SW USA_SEARAD_NW STORM_SPEED STORM_DIR
1914143N12142 1914 11 WP MM NOT_NAMED 1914-05-23 10:00:00 NR 12.4000 141.500 main 1603 1598 __________O___ -1 12.4000 141.500 2 3 272
1914143N12142 1914 11 WP MM NOT_NAMED 1914-05-23 12:00:00 NR 12.4042 141.381 main 1598 1590 __________P___ -1 12.4042 141.381 2 4 272
1914143N12142 1914 11 WP MM NOT_NAMED 1914-05-23 15:00:00 NR 12.4089 141.184 main 1590 1578 __________P___ -1 12.4089 141.184 2 4 271
1914143N12142 1914 11 WP MM NOT_NAMED 1914-05-23 18:00:00 NR 12.4095 140.942 main 1578 1567 __________P___ -1 12.4095 140.942 2 5 269
1914143N12142 1914 11 WP MM NOT_NAMED 1914-05-23 21:00:00 NR 12.4038 140.626 main 1567 1563 __________P___ -1 12.4038 140.626 2 6 269
1914143N12142 1914 11 WP MM NOT_NAMED 1914-05-23 22:00:00 NR 12.4000 140.500 main 1563 1553 __________O___ -1 12.4000 140.500 2 8 268
1914143N12142 1914 11 WP MM NOT_NAMED 1914-05-24 00:00:00 NR 12.3892 140.213 main 1553 1518 __________P___ -1 12.3892 140.213 2 9 268
1914143N12142 1914 11 WP MM NOT_NAMED 1914-05-24 03:00:00 NR 12.3667 139.712 main 1518 1462 __________P___ -1 12.3667 139.712 2 10 267
1914143N12142 1914 11 WP MM NOT_NAMED 1914-05-24 06:00:00 NR 12.3390 139.160 main 1462 1399 __________P___ -1 12.3390 139.160 2 11 267
1914143N12142 1914 11 WP MM NOT_NAMED 1914-05-24 09:00:00 NR 12.3096 138.589 main 1399 1377 __________P___ -1 12.3096 138.589 2 11 267
1914143N12142 1914 11 WP MM NOT_NAMED 1914-05-24 10:00:00 NR 12.3000 138.400 main 1377 1335 __________O___ -1 12.3000 138.400 2 11 267
1914143N12142 1914 11 WP MM NOT_NAMED 1914-05-24 12:00:00 NR 12.2779 138.045 main 1335 1280 __________P___ -1 12.2779 138.045 2 10 266
1914143N12142 1914 11 WP MM NOT_NAMED 1914-05-24 15:00:00 NR 12.2449 137.512 main 1280 1227 __________P___ -1 12.2449 137.512 2 10 267
1914143N12142 1914 11 WP MM NOT_NAMED 1914-05-24 18:00:00 NR 12.2173 136.984 main 1227 1173 __________P___ -1 12.2173 136.984 2 10 268
1914143N12142 1914 11 WP MM NOT_NAMED 1914-05-24 21:00:00 NR 12.2016 136.468 main 1173 1152 __________P___ -1 12.2016 136.468 2 10 269
1914143N12142 1914 11 WP MM NOT_NAMED 1914-05-24 22:00:00 NR 12.2000 136.300 main 1152 1119 __________O___ -1 12.2000 136.300 2 10 270
1914143N12142 1914 11 WP MM NOT_NAMED 1914-05-25 00:00:00 NR 12.2023 135.975 main 1119 1065 __________P___ -1 12.2023 135.975 2 9 271
1914143N12142 1914 11 WP MM NOT_NAMED 1914-05-25 03:00:00 NR 12.2186 135.499 main 1065 1011 __________P___ -1 12.2186 135.499 2 9 273
1914143N12142 1914 11 WP MM NOT_NAMED 1914-05-25 06:00:00 NR 12.2474 135.030 main 1011 969 __________P___ -1 12.2474 135.030 2 9 274
1914143N12142 1914 11 WP MM NOT_NAMED 1914-05-25 09:00:00 NR 12.2857 134.559 main 969 948 __________P___ -1 12.2857 134.559 2 9 275
1914143N12142 1914 11 WP MM NOT_NAMED 1914-05-25 10:00:00 NR 12.3000 134.400 main 948 905 __________O___ -1 12.3000 134.400 2 10 271
1914143N12142 1914 11 WP MM NOT_NAMED 1914-05-25 12:00:00 NR 12.2937 134.041 main 905 851 __________P___ -1 12.2937 134.041 2 11 269
1914143N12142 1914 11 WP MM NOT_NAMED 1914-05-25 15:00:00 NR 12.2898 133.495 main 851 798 __________P___ -1 12.2898 133.495 2 10 272
1914143N12142 1914 11 WP MM NOT_NAMED 1914-05-25 18:00:00 NR 12.3256 132.977 main 798 746 __________P___ -1 12.3256 132.977 2 10 279
1914143N12142 1914 11 WP MM NOT_NAMED 1914-05-25 21:00:00 NR 12.4387 132.528 main 746 738 __________P___ -1 12.4387 132.528 2 9 287
1914143N12142 1914 11 WP MM NOT_NAMED 1914-05-25 22:00:00 NR 12.5000 132.400 main 738 719 __________O___ -1 12.5000 132.400 7 9 303
1914143N12142 1914 11 WP MM NOT_NAMED 1914-05-26 00:00:00 NR 12.6728 132.152 main 722 697 __________P___ -1 12.6728 132.152 7 9 314
1914143N12142 1914 11 WP MM NOT_NAMED 1914-05-26 03:00:00 NR 13.0142 131.853 main 700 682 __________P___ -1 13.0142 131.853 7 9 327
1914143N12142 1914 11 WP MM NOT_NAMED 1914-05-26 06:00:00 NR 13.4210 131.660 main 685 677 __________P___ -1 13.4210 131.660 7 9 343
1914143N12142 1914 11 WP MM NOT_NAMED 1914-05-26 09:00:00 NR 13.8555 131.592 main 687 687 __________P___ -1 13.8555 131.592 7 9 355
1914143N12142 1914 11 WP MM NOT_NAMED 1914-05-26 10:00:00 NR 14.0000 131.600 main 691 691 __________O___ -1 14.0000 131.600 7 9 9
1914143N12142 1914 11 WP MM NOT_NAMED 1914-05-26 12:00:00 NR 14.2822 131.664 main 711 711 __________P___ -1 14.2822 131.664 7 9 20
1914143N12142 1914 11 WP MM NOT_NAMED 1914-05-26 15:00:00 NR 14.6904 131.861 main 746 746 __________P___ -1 14.6904 131.861 7 9 30
1914143N12142 1914 11 WP MM NOT_NAMED 1914-05-26 18:00:00 NR 15.0852 132.146 main 783 793 __________P___ -1 15.0852 132.146 7 10 38
1914143N12142 1914 11 WP MM NOT_NAMED 1914-05-26 21:00:00 NR 15.4719 132.483 main 841 841 __________P___ -1 15.4719 132.483 7 10 40
1914143N12142 1914 11 WP MM NOT_NAMED 1914-05-26 22:00:00 NR 15.6000 132.600 main 855 __________O___ -1 15.6000 132.600 7 10 40

デジタル台風データ・検索

IBTrACS Databaseについて

本データベースは、米国NOAAが公開する1842年以降の世界の熱帯低気圧のベストトラックデータアーカイブInternational Best Track Archive for Climate Stewardship (IBTrACS)を、ウェブで閲覧しやすい形式に変換したものです。

最終更新日:2021-11-26